createdAt,value
2019-04-28T00:00:46.504Z,56.34
2019-04-28T00:03:48.425Z,56.27
2019-04-28T00:06:51.498Z,56.39
2019-04-28T00:09:54.196Z,56.41
2019-04-28T00:12:56.207Z,56.57
2019-04-28T00:15:58.134Z,56.70
2019-04-28T00:19:01.117Z,56.75
2019-04-28T00:22:07.015Z,56.78
2019-04-28T00:25:21.390Z,56.60
2019-04-28T00:28:23.556Z,56.40
2019-04-28T00:31:25.531Z,56.55
2019-04-28T00:34:27.511Z,56.56
2019-04-28T00:37:31.942Z,56.36
2019-04-28T00:40:34.217Z,56.42
2019-04-28T00:43:36.150Z,56.54
2019-04-28T00:46:41.039Z,56.69
2019-04-28T00:49:46.413Z,56.80
2019-04-28T00:52:48.464Z,56.77
2019-04-28T00:55:51.624Z,56.88
2019-04-28T00:58:54.315Z,56.92
2019-04-28T01:01:58.073Z,56.76
2019-04-28T01:05:01.522Z,56.79
2019-04-28T01:08:05.219Z,56.76
2019-04-28T01:11:07.199Z,56.71
2019-04-28T01:14:09.213Z,56.88
2019-04-28T01:17:16.037Z,57.00
2019-04-28T01:20:22.308Z,56.99
2019-04-28T01:23:24.251Z,57.13
2019-04-28T01:26:26.115Z,57.19
2019-04-28T01:29:29.468Z,57.26
2019-04-28T01:32:33.542Z,57.15
2019-04-28T01:35:35.478Z,57.08
2019-04-28T01:38:37.407Z,57.04
2019-04-28T01:41:39.854Z,56.97
2019-04-28T01:44:41.980Z,57.12
2019-04-28T01:47:43.948Z,57.24
2019-04-28T01:50:45.907Z,57.40
2019-04-28T01:53:47.826Z,57.35
2019-04-28T01:56:50.263Z,57.50
2019-04-28T01:59:52.396Z,57.63
2019-04-28T02:02:54.299Z,57.73
2019-04-28T02:05:56.225Z,57.94
2019-04-28T02:08:58.180Z,58.13
2019-04-28T02:12:00.762Z,58.16
2019-04-28T02:15:05.772Z,58.26
2019-04-28T02:18:09.906Z,58.23
2019-04-28T02:21:32.192Z,58.43
2019-04-28T02:24:35.164Z,58.31
2019-04-28T02:27:37.617Z,58.54
2019-04-28T02:30:45.473Z,58.57
2019-04-28T02:33:43.405Z,58.70
2019-04-28T02:36:45.370Z,58.61
2019-04-28T02:39:47.292Z,58.54
2019-04-28T02:42:51.898Z,58.66
2019-04-28T02:45:53.710Z,58.64
2019-04-28T02:48:55.773Z,58.67
2019-04-28T02:52:05.009Z,58.72
2019-04-28T02:55:07.725Z,58.73
2019-04-28T02:58:11.348Z,58.85
2019-04-28T03:01:22.839Z,58.87
2019-04-28T03:04:17.355Z,58.89
2019-04-28T03:07:21.811Z,58.83
2019-04-28T03:10:23.190Z,58.92
2019-04-28T03:13:25.188Z,58.77
2019-04-28T03:16:27.222Z,58.69
2019-04-28T03:19:31.066Z,58.71
2019-04-28T03:22:33.875Z,58.80
2019-04-28T03:25:54.370Z,58.83
2019-04-28T03:29:11.440Z,58.69
2019-04-28T03:32:30.615Z,58.81
2019-04-28T03:35:22.949Z,58.90
2019-04-28T03:38:22.894Z,59.00
2019-04-28T03:41:24.815Z,58.98
2019-04-28T03:44:26.770Z,59.03
2019-04-28T03:47:31.199Z,59.24
2019-04-28T03:50:32.498Z,59.26
2019-04-28T03:53:34.384Z,59.19
2019-04-28T03:56:36.309Z,59.16
2019-04-28T03:59:41.227Z,59.09
2019-04-28T04:02:42.131Z,58.90
2019-04-28T04:05:44.013Z,58.93
2019-04-28T04:08:45.863Z,58.93
2019-04-28T04:11:50.892Z,58.79
2019-04-28T04:15:04.359Z,58.79
2019-04-28T04:18:10.871Z,58.68
2019-04-28T04:21:12.098Z,58.79
2019-04-28T04:24:14.039Z,58.71
2019-04-28T04:27:15.884Z,58.58
2019-04-28T04:30:17.818Z,58.52
2019-04-28T04:33:20.744Z,58.24
2019-04-28T04:36:23.036Z,58.25
2019-04-28T04:39:24.907Z,58.09
2019-04-28T04:42:26.989Z,57.87
2019-04-28T04:45:30.565Z,57.69
2019-04-28T04:48:32.796Z,57.34
2019-04-28T04:51:34.695Z,56.88
2019-04-28T04:54:36.968Z,56.59
2019-04-28T04:57:40.726Z,56.40
2019-04-28T05:00:51.128Z,56.16
2019-04-28T05:03:55.167Z,55.91
2019-04-28T05:06:57.134Z,55.62
2019-04-28T05:09:59.497Z,55.32
2019-04-28T05:13:01.897Z,54.87
2019-04-28T05:16:03.803Z,54.56
2019-04-28T05:19:05.869Z,54.47
2019-04-28T05:22:10.073Z,54.22
2019-04-28T05:25:20.441Z,54.02
2019-04-28T05:28:22.749Z,53.80
2019-04-28T05:31:24.653Z,53.33
2019-04-28T05:34:26.639Z,52.93
2019-04-28T05:37:29.915Z,52.43
2019-04-28T05:40:32.022Z,52.16
2019-04-28T05:43:33.983Z,51.63
2019-04-28T05:46:36.151Z,50.98
2019-04-28T05:49:39.951Z,50.52
2019-04-28T05:52:44.872Z,50.29
2019-04-28T05:55:54.188Z,49.95
2019-04-28T05:58:57.983Z,49.72
2019-04-28T06:02:04.403Z,49.65
2019-04-28T06:05:06.543Z,49.24
2019-04-28T06:08:16.059Z,48.98
2019-04-28T06:11:39.765Z,48.15
2019-04-28T06:14:41.954Z,48.23
2019-04-28T06:17:43.867Z,48.13
2019-04-28T06:20:45.937Z,48.05
2019-04-28T06:23:47.809Z,47.71
2019-04-28T06:26:49.805Z,47.31
2019-04-28T06:29:51.709Z,47.16
2019-04-28T06:33:06.770Z,47.22
2019-04-28T06:35:57.569Z,47.13
2019-04-28T06:38:59.542Z,46.55
2019-04-28T06:42:01.429Z,46.35
2019-04-28T06:45:06.087Z,46.08
2019-04-28T06:48:08.026Z,45.64
2019-04-28T06:51:09.972Z,45.18
2019-04-28T06:54:11.955Z,45.20
2019-04-28T06:57:13.955Z,44.97
2019-04-28T07:00:16.017Z,44.77
2019-04-28T07:03:23.296Z,44.60
2019-04-28T07:06:21.959Z,44.14
2019-04-28T07:09:24.045Z,44.18
2019-04-28T07:12:26.054Z,43.63
2019-04-28T07:15:29.111Z,43.58
2019-04-28T07:18:31.060Z,43.25
2019-04-28T07:21:38.072Z,43.20
2019-04-28T07:24:39.948Z,42.49
2019-04-28T07:27:41.983Z,41.64
2019-04-28T07:30:43.947Z,41.66
2019-04-28T07:33:45.886Z,41.13
2019-04-28T07:36:47.843Z,40.85
2019-04-28T07:39:49.750Z,40.06
2019-04-28T07:42:51.647Z,39.42
2019-04-28T07:45:54.794Z,39.00
2019-04-28T07:48:56.693Z,38.77
2019-04-28T07:52:00.483Z,38.16
2019-04-28T07:55:05.053Z,37.88
2019-04-28T07:58:06.984Z,37.84
2019-04-28T08:01:10.744Z,37.71
2019-04-28T08:04:12.680Z,37.30
2019-04-28T08:07:14.672Z,37.30
2019-04-28T08:10:16.615Z,37.38
2019-04-28T08:13:18.561Z,37.09
2019-04-28T08:16:21.041Z,36.73
2019-04-28T08:19:24.929Z,36.60
2019-04-28T08:22:26.939Z,36.37
2019-04-28T08:25:28.947Z,36.14
2019-04-28T08:28:31.967Z,36.01
2019-04-28T08:31:39.283Z,35.94
2019-04-28T08:34:42.354Z,35.75
2019-04-28T08:37:45.002Z,35.21
2019-04-28T08:40:46.918Z,35.19
2019-04-28T08:43:48.877Z,34.78
2019-04-28T08:46:50.838Z,34.51
2019-04-28T08:49:52.747Z,34.17
2019-04-28T08:52:54.693Z,34.07
2019-04-28T08:55:56.594Z,33.46
2019-04-28T08:58:58.604Z,33.69
2019-04-28T09:02:00.491Z,33.30
2019-04-28T09:05:03.815Z,32.46
2019-04-28T09:08:05.929Z,32.39
2019-04-28T09:11:07.996Z,32.49
2019-04-28T09:14:09.973Z,32.88
2019-04-28T09:17:11.890Z,32.87
2019-04-28T09:20:13.947Z,32.67
2019-04-28T09:23:15.962Z,32.75
2019-04-28T09:26:17.857Z,32.81
2019-04-28T09:29:19.864Z,32.82
2019-04-28T09:32:21.763Z,32.82
2019-04-28T09:35:25.079Z,33.17
2019-04-28T09:38:27.120Z,32.40
2019-04-28T09:41:29.294Z,32.59
2019-04-28T09:44:31.235Z,32.74
2019-04-28T09:47:33.159Z,32.69
2019-04-28T09:50:35.087Z,32.57
2019-04-28T09:53:37.003Z,33.12
2019-04-28T09:56:38.838Z,33.69
2019-04-28T09:59:40.835Z,33.42
2019-04-28T10:02:42.767Z,33.48
2019-04-28T10:05:45.099Z,33.00
2019-04-28T10:08:47.020Z,32.94
2019-04-28T10:11:48.991Z,32.58
2019-04-28T10:14:50.858Z,32.61
2019-04-28T10:17:52.898Z,33.06
2019-04-28T10:20:54.839Z,33.62
2019-04-28T10:23:56.885Z,33.58
2019-04-28T10:26:58.811Z,33.62
2019-04-28T10:30:00.747Z,33.37
2019-04-28T10:33:02.846Z,33.52
2019-04-28T10:36:04.819Z,33.52
2019-04-28T10:39:26.232Z,33.46
2019-04-28T10:42:28.215Z,33.46
2019-04-28T10:45:31.905Z,33.49
2019-04-28T10:48:33.840Z,33.37
2019-04-28T10:51:35.701Z,33.48
2019-04-28T10:54:37.596Z,33.21
2019-04-28T10:57:40.611Z,33.41
2019-04-28T11:00:42.680Z,34.05
2019-04-28T11:03:46.430Z,33.12
2019-04-28T11:06:48.357Z,33.42
2019-04-28T11:09:55.232Z,33.34
2019-04-28T11:12:57.306Z,34.18
2019-04-28T11:15:59.260Z,33.98
2019-04-28T11:19:01.266Z,33.92
2019-04-28T11:22:03.232Z,33.51
2019-04-28T11:25:05.628Z,33.67
2019-04-28T11:28:07.818Z,33.40
2019-04-28T11:31:09.828Z,33.10
2019-04-28T11:34:30.084Z,33.26
2019-04-28T11:37:32.064Z,33.65
2019-04-28T11:40:34.109Z,33.82
2019-04-28T11:43:36.210Z,33.81
2019-04-28T11:46:38.200Z,33.54
2019-04-28T11:49:40.099Z,33.35
2019-04-28T11:52:42.056Z,33.75
2019-04-28T11:55:43.984Z,33.29
2019-04-28T11:58:45.962Z,33.07
2019-04-28T12:01:47.977Z,32.88
2019-04-28T12:04:50.625Z,32.86
2019-04-28T12:07:52.592Z,32.96
2019-04-28T12:11:02.584Z,32.65
2019-04-28T12:14:15.773Z,32.46
2019-04-28T12:17:25.349Z,32.15
2019-04-28T12:20:27.494Z,32.33
2019-04-28T12:23:29.524Z,32.44
2019-04-28T12:26:31.681Z,32.20
2019-04-28T12:29:33.707Z,31.92
2019-04-28T12:32:35.708Z,31.89
2019-04-28T12:35:47.705Z,32.27
2019-04-28T12:38:41.669Z,32.36
2019-04-28T12:41:43.679Z,32.08
2019-04-28T12:44:45.638Z,31.86
2019-04-28T12:47:47.552Z,31.92
2019-04-28T12:50:52.678Z,31.66
2019-04-28T12:53:56.370Z,31.59
2019-04-28T12:56:58.319Z,31.47
2019-04-28T13:00:02.093Z,31.31
2019-04-28T13:03:06.345Z,31.30
2019-04-28T13:06:10.130Z,31.87
2019-04-28T13:09:12.054Z,32.40
2019-04-28T13:12:15.778Z,32.42
2019-04-28T13:15:17.711Z,32.28
2019-04-28T13:18:19.689Z,32.25
2019-04-28T13:21:21.617Z,32.11
2019-04-28T13:24:25.822Z,31.95
2019-04-28T13:27:27.872Z,31.98
2019-04-28T13:30:29.896Z,31.99
2019-04-28T13:33:31.821Z,31.80
2019-04-28T13:36:35.028Z,31.77
2019-04-28T13:39:38.824Z,31.97
2019-04-28T13:42:40.830Z,32.05
2019-04-28T13:45:42.780Z,32.29
2019-04-28T13:48:44.824Z,32.50
2019-04-28T13:51:46.750Z,32.49
2019-04-28T13:54:50.547Z,32.55
2019-04-28T13:57:52.552Z,32.51
2019-04-28T14:00:59.309Z,32.54
2019-04-28T14:04:19.831Z,32.78
2019-04-28T14:07:22.413Z,32.92
2019-04-28T14:10:24.447Z,32.92
2019-04-28T14:13:26.579Z,32.78
2019-04-28T14:16:28.720Z,32.88
2019-04-28T14:19:30.732Z,33.10
2019-04-28T14:22:32.709Z,33.02
2019-04-28T14:25:35.036Z,33.15
2019-04-28T14:28:38.911Z,33.00
2019-04-28T14:31:40.865Z,32.95
2019-04-28T14:34:42.843Z,32.90
2019-04-28T14:37:45.998Z,32.85
2019-04-28T14:40:47.930Z,32.72
2019-04-28T14:43:49.951Z,32.58
2019-04-28T14:46:52.936Z,32.62
2019-04-28T14:49:54.871Z,32.77
2019-04-28T14:52:56.845Z,33.08
2019-04-28T14:55:58.740Z,33.26
2019-04-28T14:59:02.582Z,33.39
2019-04-28T15:02:15.106Z,33.42
2019-04-28T15:05:21.656Z,33.52
2019-04-28T15:08:42.203Z,33.66
2019-04-28T15:11:47.155Z,33.97
2019-04-28T15:14:49.242Z,34.26
2019-04-28T15:17:51.187Z,34.62
2019-04-28T15:20:55.971Z,34.92
2019-04-28T15:23:58.298Z,35.35
2019-04-28T15:27:00.573Z,35.79
2019-04-28T15:30:04.227Z,35.97
2019-04-28T15:33:08.356Z,36.20
2019-04-28T15:36:10.252Z,36.77
2019-04-28T15:39:13.171Z,37.23
2019-04-28T15:42:15.462Z,37.62
2019-04-28T15:45:17.460Z,37.90
2019-04-28T15:48:19.468Z,38.12
2019-04-28T15:51:21.464Z,38.32
2019-04-28T15:54:23.477Z,38.92
2019-04-28T15:57:25.435Z,39.37
2019-04-28T16:00:27.426Z,39.88
2019-04-28T16:03:29.696Z,40.40
2019-04-28T16:06:32.235Z,40.85
2019-04-28T16:09:34.140Z,41.23
2019-04-28T16:12:36.047Z,41.52
2019-04-28T16:15:38.268Z,41.61
2019-04-28T16:18:40.221Z,42.05
2019-04-28T16:21:42.149Z,42.41
2019-04-28T16:24:45.918Z,42.55
2019-04-28T16:27:49.661Z,42.94
2019-04-28T16:30:53.021Z,43.53
2019-04-28T16:33:59.069Z,43.82
2019-04-28T16:37:00.939Z,44.08
2019-04-28T16:40:08.993Z,44.62
2019-04-28T16:43:15.686Z,45.29
2019-04-28T16:46:17.774Z,45.42
2019-04-28T16:49:19.738Z,45.96
2019-04-28T16:52:23.934Z,46.36
2019-04-28T16:55:31.434Z,46.95
2019-04-28T16:58:53.548Z,47.12
2019-04-28T17:02:15.335Z,47.33
2019-04-28T17:05:20.220Z,47.64
2019-04-28T17:08:22.216Z,47.92
2019-04-28T17:11:26.409Z,47.91
2019-04-28T17:14:30.152Z,48.04
2019-04-28T17:17:34.002Z,48.01
2019-04-28T17:20:37.161Z,48.14
2019-04-28T17:23:39.155Z,48.31
2019-04-28T17:26:44.226Z,48.36
2019-04-28T17:29:47.402Z,48.54
2019-04-28T17:32:52.805Z,48.74
2019-04-28T17:36:00.977Z,49.02
2019-04-28T17:39:10.301Z,49.10
2019-04-28T17:42:15.633Z,49.57
2019-04-28T17:45:21.370Z,49.81
2019-04-28T17:48:27.457Z,49.99
2019-04-28T17:51:29.399Z,50.08
2019-04-28T17:54:31.301Z,50.36
2019-04-28T17:57:33.610Z,50.52
2019-04-28T18:00:56.360Z,50.73
2019-04-28T18:04:18.458Z,50.99
2019-04-28T18:07:25.266Z,51.36
2019-04-28T18:10:27.760Z,51.65
2019-04-28T18:13:32.208Z,51.72
2019-04-28T18:16:55.402Z,51.75
2019-04-28T18:19:57.501Z,51.86
2019-04-28T18:22:59.797Z,51.99
2019-04-28T18:26:04.846Z,52.02
2019-04-28T18:29:07.854Z,52.47
2019-04-28T18:32:26.115Z,52.65
2019-04-28T18:35:33.057Z,52.67
2019-04-28T18:38:45.217Z,52.70
2019-04-28T18:41:51.776Z,52.98
2019-04-28T18:44:53.741Z,53.03
2019-04-28T18:47:55.690Z,53.45
2019-04-28T18:50:58.192Z,53.51
2019-04-28T18:54:00.163Z,53.49
2019-04-28T18:57:02.379Z,53.82
2019-04-28T19:00:06.005Z,53.88
2019-04-28T19:03:09.811Z,53.86
2019-04-28T19:06:14.485Z,54.09
2019-04-28T19:09:36.912Z,54.20
2019-04-28T19:12:50.023Z,54.46
2019-04-28T19:15:58.221Z,54.55
2019-04-28T19:19:04.914Z,55.02
2019-04-28T19:22:06.900Z,55.21
2019-04-28T19:25:09.563Z,55.31
2019-04-28T19:28:11.501Z,55.48
2019-04-28T19:31:15.558Z,55.57
2019-04-28T19:34:17.795Z,55.55
2019-04-28T19:37:20.554Z,55.60
2019-04-28T19:40:22.900Z,55.89
2019-04-28T19:43:24.898Z,55.98
2019-04-28T19:46:28.134Z,56.10
2019-04-28T19:49:30.082Z,56.17
2019-04-28T19:52:34.256Z,56.47
2019-04-28T19:55:45.175Z,56.35
2019-04-28T19:58:49.975Z,56.51
2019-04-28T20:01:51.899Z,56.61
2019-04-28T20:04:55.668Z,56.75
2019-04-28T20:07:57.623Z,56.81
2019-04-28T20:11:00.740Z,57.00
2019-04-28T20:14:04.833Z,57.01
2019-04-28T20:17:06.702Z,56.90
2019-04-28T20:20:11.397Z,56.98
2019-04-28T20:23:14.683Z,57.12
2019-04-28T20:26:16.658Z,57.27
2019-04-28T20:29:23.172Z,57.19
2019-04-28T20:32:24.717Z,57.22
2019-04-28T20:35:46.818Z,57.30
2019-04-28T20:38:50.636Z,57.46
2019-04-28T20:41:52.672Z,57.78
2019-04-28T20:44:54.950Z,57.99
2019-04-28T20:47:56.982Z,58.12
2019-04-28T20:50:58.940Z,58.20
2019-04-28T20:54:00.914Z,58.19
2019-04-28T20:57:02.901Z,58.33
2019-04-28T21:00:05.320Z,58.48
2019-04-28T21:03:11.188Z,58.69
2019-04-28T21:06:13.082Z,59.03
2019-04-28T21:09:15.035Z,59.17
2019-04-28T21:12:16.951Z,59.55
2019-04-28T21:15:18.917Z,59.37
2019-04-28T21:18:20.860Z,59.47
2019-04-28T21:21:22.810Z,59.62
2019-04-28T21:24:24.810Z,59.88
2019-04-28T21:27:26.741Z,59.74
2019-04-28T21:30:28.688Z,59.79
2019-04-28T21:33:30.632Z,59.92
2019-04-28T21:36:32.521Z,59.96
2019-04-28T21:39:34.934Z,59.87
2019-04-28T21:42:44.510Z,59.77
2019-04-28T21:45:50.373Z,59.79
2019-04-28T21:48:53.875Z,59.84
2019-04-28T21:51:55.826Z,59.87
2019-04-28T21:54:57.889Z,59.92
2019-04-28T21:57:59.806Z,59.72
2019-04-28T22:01:02.162Z,59.75
2019-04-28T22:04:05.924Z,59.94
2019-04-28T22:07:07.842Z,60.13
2019-04-28T22:10:09.910Z,60.27
2019-04-28T22:13:11.932Z,60.19
2019-04-28T22:16:13.832Z,60.16
2019-04-28T22:19:15.903Z,60.09
2019-04-28T22:22:17.849Z,60.21
2019-04-28T22:25:24.231Z,60.10
2019-04-28T22:28:26.246Z,60.37
2019-04-28T22:31:28.147Z,60.56
2019-04-28T22:34:30.137Z,60.73
2019-04-28T22:37:32.063Z,60.85
2019-04-28T22:40:34.513Z,60.75
2019-04-28T22:43:36.422Z,60.77
2019-04-28T22:46:38.421Z,60.71
2019-04-28T22:49:40.907Z,60.67
2019-04-28T22:52:42.823Z,60.64
2019-04-28T22:55:46.896Z,60.69
2019-04-28T22:58:56.697Z,60.63
2019-04-28T23:02:00.458Z,60.48
2019-04-28T23:05:06.577Z,60.51
2019-04-28T23:08:08.543Z,60.63
2019-04-28T23:11:10.385Z,60.68
2019-04-28T23:14:12.317Z,60.58
2019-04-28T23:17:17.094Z,60.63
2019-04-28T23:20:19.344Z,60.74
2019-04-28T23:23:21.271Z,60.75
2019-04-28T23:26:23.259Z,60.56
2019-04-28T23:29:25.156Z,60.34
2019-04-28T23:32:27.072Z,60.49
2019-04-28T23:35:29.011Z,60.54
2019-04-28T23:38:31.085Z,60.72
2019-04-28T23:41:37.984Z,60.77
2019-04-28T23:44:39.896Z,60.80
2019-04-28T23:47:41.776Z,60.82
2019-04-28T23:51:02.142Z,60.58
2019-04-28T23:54:05.904Z,60.47
2019-04-28T23:57:07.962Z,60.78
